Time,TemperatureF,DewpointF,PressureIn,WindDirection,WindDirectionDegrees,WindSpeedMPH,WindSpeedGustMPH,Humidity,HourlyPrecipIn,Conditions,Clouds,dailyrainin,SolarRadiationWatts/m^2,SoftwareType,DateUTC
2013-01-25 00:02:00,34.0,-99.9,-100.00,SSW,211,2.0,3.0,-999,0.00,,,-99.99,0.000000,,2013-01-25 07:02:00,
2013-01-25 00:11:00,34.0,-99.9,-100.00,West,263,1.0,3.0,-999,0.00,,,-99.99,0.000000,,2013-01-25 07:11:00,
2013-01-25 00:22:00,36.0,-99.9,-100.00,SSW,202,1.0,3.0,-999,0.00,,,-99.99,0.000000,,2013-01-25 07:22:00,
2013-01-25 00:32:00,35.0,-99.9,-100.00,WSW,250,1.0,2.0,-999,0.00,,,-99.99,0.000000,,2013-01-25 07:32:00,
2013-01-25 00:42:00,34.0,-99.9,-100.00,South,183,1.0,2.0,-999,0.00,,,-99.99,0.000000,,2013-01-25 07:42:00,
2013-01-25 00:52:00,34.0,-99.9,-100.00,South,183,1.0,2.0,-999,0.00,,,-99.99,0.000000,,2013-01-25 07:52:00,
2013-01-25 01:02:00,35.0,-99.9,-100.00,NE,40,3.0,5.0,-999,0.00,,,-99.99,0.000000,,2013-01-25 08:02:00,
2013-01-25 01:12:00,35.0,-99.9,-100.00,SE,143,1.0,2.0,-999,0.00,,,-99.99,0.000000,,2013-01-25 08:12:00,
2013-01-25 01:22:00,35.0,-99.9,-100.00,North,-999,-999.0,0.0,-999,0.00,,,-99.99,0.000000,,2013-01-25 08:22:00,
2013-01-25 01:32:00,34.0,-99.9,-100.00,NE,39,1.0,2.0,-999,0.00,,,-99.99,0.000000,,2013-01-25 08:32:00,
2013-01-25 01:42:00,34.0,-99.9,-100.00,North,-999,-999.0,0.0,-999,0.00,,,-99.99,0.000000,,2013-01-25 08:42:00,
2013-01-25 01:50:00,34.0,-99.9,-100.00,SSE,157,2.0,3.0,-999,0.00,,,-99.99,0.000000,,2013-01-25 08:50:00,
2013-01-25 01:52:00,34.0,-99.9,-100.00,North,-999,-999.0,0.0,-999,0.00,,,-99.99,0.000000,,2013-01-25 08:52:00,
2013-01-25 02:02:00,34.0,-99.9,-100.00,South,182,3.0,4.0,-999,0.00,,,-99.99,0.000000,,2013-01-25 09:02:00,
2013-01-25 02:11:00,34.0,-99.9,-100.00,SSE,157,2.0,3.0,-999,0.00,,,-99.99,0.000000,,2013-01-25 09:11:00,
2013-01-25 02:22:00,34.0,-99.9,-100.00,SSE,157,2.0,3.0,-999,0.00,,,-99.99,0.000000,,2013-01-25 09:22:00,
2013-01-25 02:32:00,34.0,-99.9,-100.00,SSE,157,2.0,3.0,-999,0.00,,,-99.99,0.000000,,2013-01-25 09:32:00,
2013-01-25 02:42:00,34.0,-99.9,-100.00,SSE,157,2.0,3.0,-999,0.00,,,-99.99,0.000000,,2013-01-25 09:42:00,
2013-01-25 03:22:00,36.0,-99.9,-100.00,South,190,2.0,2.0,-999,0.00,,,-99.99,0.000000,,2013-01-25 10:22:00,
2013-01-25 03:32:00,36.0,-99.9,-100.00,North,-999,-999.0,0.0,-999,0.00,,,-99.99,0.000000,,2013-01-25 10:32:00,
2013-01-25 03:42:00,38.0,-99.9,-100.00,North,-999,-999.0,0.0,-999,0.00,,,-99.99,0.000000,,2013-01-25 10:42:00,
2013-01-25 03:52:00,38.0,-99.9,-100.00,North,-999,-999.0,0.0,-999,0.00,,,-99.99,0.000000,,2013-01-25 10:52:00,
2013-01-25 04:03:00,37.0,-99.9,-100.00,North,-999,-999.0,0.0,-999,0.00,,,-99.99,0.000000,,2013-01-25 11:03:00,
2013-01-25 04:11:00,38.0,-99.9,-100.00,SSW,213,0.0,1.0,-999,0.00,,,-99.99,0.000000,,2013-01-25 11:11:00,
2013-01-25 04:22:00,36.0,-99.9,-100.00,North,-999,-999.0,0.0,-999,0.00,,,-99.99,0.000000,,2013-01-25 11:22:00,
2013-01-25 04:33:00,36.0,-99.9,-100.00,North,-999,-999.0,0.0,-999,0.00,,,-99.99,0.000000,,2013-01-25 11:33:00,
2013-01-25 04:42:00,36.0,-99.9,-100.00,North,-999,-999.0,0.0,-999,0.00,,,-99.99,0.000000,,2013-01-25 11:42:00,
2013-01-25 04:52:00,36.0,-99.9,-100.00,SW,226,0.0,2.0,-999,0.00,,,-99.99,0.000000,,2013-01-25 11:52:00,
2013-01-25 05:03:00,38.0,-99.9,-100.00,North,-999,-999.0,0.0,-999,0.00,,,-99.99,0.000000,,2013-01-25 12:03:00,
2013-01-25 05:12:00,35.0,-99.9,-100.00,SE,131,1.0,3.0,-999,0.00,,,-99.99,0.000000,,2013-01-25 12:12:00,
2013-01-25 05:22:00,36.0,-99.9,-100.00,SE,133,3.0,4.0,-999,0.00,,,-99.99,0.000000,,2013-01-25 12:22:00,
2013-01-25 05:33:00,36.0,-99.9,-100.00,SE,138,3.0,4.0,-999,0.00,,,-99.99,0.000000,,2013-01-25 12:33:00,
2013-01-25 05:42:00,35.0,-99.9,-100.00,SSW,211,2.0,3.0,-999,0.00,,,-99.99,0.000000,,2013-01-25 12:42:00,
2013-01-25 05:53:00,35.0,-99.9,-100.00,SSW,211,2.0,3.0,-999,0.00,,,-99.99,0.000000,,2013-01-25 12:53:00,
2013-01-25 06:03:00,36.0,-99.9,-100.00,WSW,247,1.0,2.0,-999,0.00,,,-99.99,0.000000,,2013-01-25 13:03:00,
2013-01-25 06:12:00,37.0,-99.9,-100.00,North,-999,-999.0,0.0,-999,0.00,,,-99.99,0.000000,,2013-01-25 13:12:00,
2013-01-25 06:22:00,38.0,-99.9,-100.00,North,-999,-999.0,0.0,-999,0.00,,,-99.99,0.000000,,2013-01-25 13:22:00,
2013-01-25 06:33:00,37.0,-99.9,-100.00,North,-999,-999.0,0.0,-999,0.00,,,-99.99,0.000000,,2013-01-25 13:33:00,
2013-01-25 06:43:00,37.0,-99.9,-100.00,North,-999,-999.0,0.0,-999,0.00,,,-99.99,0.000000,,2013-01-25 13:43:00,
2013-01-25 06:50:00,35.0,-99.9,-100.00,North,-999,-999.0,0.0,-999,0.00,,,-99.99,0.000000,,2013-01-25 13:50:00,
2013-01-25 06:53:00,37.0,-99.9,-100.00,North,-999,-999.0,0.0,-999,0.00,,,-99.99,0.000000,,2013-01-25 13:53:00,
2013-01-25 07:03:00,37.0,-99.9,-100.00,North,-999,-999.0,0.0,-999,0.00,,,-99.99,0.000000,,2013-01-25 14:03:00,
2013-01-25 07:13:00,35.0,-99.9,-100.00,North,-999,-999.0,0.0,-999,0.00,,,-99.99,0.000000,,2013-01-25 14:13:00,
2013-01-25 07:23:00,35.0,-99.9,-100.00,North,-999,-999.0,0.0,-999,0.00,,,-99.99,0.000000,,2013-01-25 14:23:00,
2013-01-25 07:33:00,35.0,-99.9,-100.00,North,-999,-999.0,0.0,-999,0.00,,,-99.99,0.000000,,2013-01-25 14:33:00,
2013-01-25 07:42:00,35.0,-99.9,-100.00,North,-999,-999.0,0.0,-999,0.00,,,-99.99,0.000000,,2013-01-25 14:42:00,
2013-01-25 08:33:00,37.0,-99.9,-100.00,North,-999,-999.0,0.0,-999,0.00,,,-99.99,12.000000,,2013-01-25 15:33:00,
2013-01-25 08:43:00,37.0,-99.9,-100.00,North,-999,-999.0,0.0,-999,0.00,,,-99.99,21.000000,,2013-01-25 15:43:00,
2013-01-25 08:53:00,37.0,-99.9,-100.00,North,-999,-999.0,0.0,-999,0.00,,,-99.99,21.000000,,2013-01-25 15:53:00,
2013-01-25 09:04:00,38.0,-99.9,-100.00,WNW,297,0.0,1.0,-999,0.00,,,-99.99,40.000000,,2013-01-25 16:04:00,
2013-01-25 09:12:00,37.0,-99.9,-100.00,North,-999,-999.0,0.0,-999,0.00,,,-99.99,52.000000,,2013-01-25 16:12:00,
2013-01-25 09:23:00,38.0,-99.9,-100.00,SSE,160,2.0,3.0,-999,0.00,,,-99.99,56.000000,,2013-01-25 16:23:00,
2013-01-25 09:33:00,38.0,-99.9,-100.00,SSE,167,2.0,3.0,-999,0.00,,,-99.99,73.000000,,2013-01-25 16:33:00,
2013-01-25 09:43:00,39.0,-99.9,-100.00,ESE,103,2.0,3.0,-999,0.00,,,-99.99,89.000000,,2013-01-25 16:43:00,
2013-01-25 09:53:00,39.0,-99.9,-100.00,ESE,103,2.0,3.0,-999,0.00,,,-99.99,89.000000,,2013-01-25 16:53:00,
2013-01-25 10:03:00,40.0,-99.9,-100.00,NW,322,3.0,4.0,-999,0.00,,,-99.99,89.000000,,2013-01-25 17:03:00,
2013-01-25 10:12:00,38.0,-99.9,-100.00,WNW,297,2.0,4.0,-999,0.00,,,-99.99,89.000000,,2013-01-25 17:12:00,
2013-01-25 10:23:00,39.0,-99.9,-100.00,SW,224,3.0,4.0,-999,0.00,,,-99.99,88.000000,,2013-01-25 17:23:00,
2013-01-25 10:33:00,39.0,-99.9,-100.00,NE,34,2.0,3.0,-999,0.00,,,-99.99,91.000000,,2013-01-25 17:33:00,
2013-01-25 10:43:00,40.0,-99.9,-100.00,SE,124,2.0,3.0,-999,0.00,,,-99.99,95.000000,,2013-01-25 17:43:00,
2013-01-25 10:53:00,40.0,-99.9,-100.00,SE,124,2.0,3.0,-999,0.00,,,-99.99,95.000000,,2013-01-25 17:53:00,
2013-01-25 11:04:00,40.0,-99.9,-100.00,East,81,1.0,1.0,-999,0.00,,,-99.99,115.000000,,2013-01-25 18:04:00,
2013-01-25 11:12:00,39.0,-99.9,-100.00,East,97,1.0,3.0,-999,0.00,,,-99.99,141.000000,,2013-01-25 18:12:00,
2013-01-25 11:24:00,39.0,-99.9,-100.00,West,267,3.0,4.0,-999,0.00,,,-99.99,171.000000,,2013-01-25 18:24:00,
2013-01-25 11:34:00,39.0,-99.9,-100.00,NW,313,2.0,4.0,-999,0.00,,,-99.99,161.000000,,2013-01-25 18:34:00,
2013-01-25 11:43:00,39.0,-99.9,-100.00,SSE,163,3.0,4.0,-999,0.00,,,-99.99,160.000000,,2013-01-25 18:43:00,
2013-01-25 11:50:00,41.0,-99.9,-100.00,ESE,106,2.0,3.0,-999,0.00,,,-99.99,212.000000,,2013-01-25 18:50:00,
2013-01-25 11:53:00,39.0,-99.9,-100.00,SSE,163,3.0,4.0,-999,0.00,,,-99.99,160.000000,,2013-01-25 18:53:00,
2013-01-25 12:03:00,41.0,-99.9,-100.00,East,97,1.0,3.0,-999,0.00,,,-99.99,200.000000,,2013-01-25 19:03:00,
2013-01-25 12:12:00,41.0,-99.9,-100.00,ESE,106,2.0,3.0,-999,0.00,,,-99.99,212.000000,,2013-01-25 19:12:00,
2013-01-25 12:23:00,41.0,-99.9,-100.00,ESE,106,2.0,3.0,-999,0.00,,,-99.99,212.000000,,2013-01-25 19:23:00,
2013-01-25 12:43:00,41.0,-99.9,-100.00,ESE,106,2.0,3.0,-999,0.00,,,-99.99,212.000000,,2013-01-25 19:43:00,
2013-01-25 13:23:00,43.0,-99.9,-100.00,East,97,2.0,3.0,-999,0.00,,,-99.99,233.000000,,2013-01-25 20:23:00,
2013-01-25 13:33:00,43.0,-99.9,-100.00,ENE,72,2.0,3.0,-999,0.00,,,-99.99,259.000000,,2013-01-25 20:33:00,
2013-01-25 13:43:00,43.0,-99.9,-100.00,South,183,1.0,4.0,-999,0.00,,,-99.99,231.000000,,2013-01-25 20:43:00,
2013-01-25 13:53:00,43.0,-99.9,-100.00,South,183,1.0,4.0,-999,0.00,,,-99.99,231.000000,,2013-01-25 20:53:00,
2013-01-25 14:02:00,40.0,-99.9,-100.00,NW,317,2.0,4.0,-999,0.00,,,-99.99,200.000000,,2013-01-25 21:02:00,
2013-01-25 14:12:00,42.0,-99.9,-100.00,NW,314,0.0,2.0,-999,0.00,,,-99.99,216.000000,,2013-01-25 21:12:00,
2013-01-25 14:23:00,43.0,-99.9,-100.00,SSW,204,0.0,1.0,-999,0.00,,,-99.99,247.000000,,2013-01-25 21:23:00,
2013-01-25 14:33:00,44.0,-99.9,-100.00,ESE,108,0.0,2.0,-999,0.00,,,-99.99,217.000000,,2013-01-25 21:33:00,
2013-01-25 14:43:00,44.0,-99.9,-100.00,North,-999,-999.0,0.0,-999,0.00,,,-99.99,191.000000,,2013-01-25 21:43:00,
2013-01-25 14:53:00,44.0,-99.9,-100.00,North,-999,-999.0,0.0,-999,0.00,,,-99.99,191.000000,,2013-01-25 21:53:00,
2013-01-25 15:03:00,43.0,-99.9,-100.00,West,261,2.0,3.0,-999,0.00,,,-99.99,219.000000,,2013-01-25 22:03:00,
2013-01-25 15:12:00,42.0,-99.9,-100.00,ENE,68,1.0,3.0,-999,0.00,,,-99.99,207.000000,,2013-01-25 22:12:00,
2013-01-25 15:23:00,43.0,-99.9,-100.00,East,100,1.0,2.0,-999,0.00,,,-99.99,206.000000,,2013-01-25 22:23:00,
2013-01-25 15:33:00,42.0,-99.9,-100.00,North,-999,-999.0,0.0,-999,0.00,,,-99.99,162.000000,,2013-01-25 22:33:00,
2013-01-25 15:42:00,41.0,-99.9,-100.00,South,184,1.0,3.0,-999,0.00,,,-99.99,143.000000,,2013-01-25 22:42:00,
2013-01-25 15:53:00,41.0,-99.9,-100.00,South,184,1.0,3.0,-999,0.00,,,-99.99,143.000000,,2013-01-25 22:53:00,
2013-01-25 16:03:00,40.0,-99.9,-100.00,WNW,289,0.0,2.0,-999,0.00,,,-99.99,90.000000,,2013-01-25 23:03:00,
2013-01-25 16:12:00,40.0,-99.9,-100.00,North,-999,-999.0,0.0,-999,0.00,,,-99.99,94.000000,,2013-01-25 23:12:00,
2013-01-25 16:22:00,41.0,-99.9,-100.00,ESE,102,1.0,2.0,-999,0.00,,,-99.99,82.000000,,2013-01-25 23:22:00,
2013-01-25 16:32:00,42.0,-99.9,-100.00,SE,144,0.0,1.0,-999,0.00,,,-99.99,68.000000,,2013-01-25 23:32:00,
2013-01-25 16:42:00,41.0,-99.9,-100.00,North,-999,-999.0,0.0,-999,0.00,,,-99.99,64.000000,,2013-01-25 23:42:00,
2013-01-25 16:50:00,39.0,-99.9,-100.00,ESE,108,1.0,2.0,-999,0.00,,,-99.99,36.000000,,2013-01-25 23:50:00,
2013-01-25 16:53:00,41.0,-99.9,-100.00,North,-999,-999.0,0.0,-999,0.00,,,-99.99,64.000000,,2013-01-25 23:53:00,
2013-01-25 17:03:00,39.0,-99.9,-100.00,SE,133,1.0,2.0,-999,0.00,,,-99.99,57.000000,,2013-01-26 00:03:00,
2013-01-25 17:12:00,39.0,-99.9,-100.00,ESE,108,1.0,2.0,-999,0.00,,,-99.99,36.000000,,2013-01-26 00:12:00,
2013-01-25 17:22:00,39.0,-99.9,-100.00,ESE,108,1.0,2.0,-999,0.00,,,-99.99,36.000000,,2013-01-26 00:22:00,
2013-01-25 17:33:00,39.0,-99.9,-100.00,ESE,108,1.0,2.0,-999,0.00,,,-99.99,36.000000,,2013-01-26 00:33:00,
2013-01-25 17:42:00,39.0,-99.9,-100.00,ESE,108,1.0,2.0,-999,0.00,,,-99.99,36.000000,,2013-01-26 00:42:00,
2013-01-25 18:22:00,38.0,-99.9,-100.00,North,-999,-999.0,0.0,-999,0.00,,,-99.99,0.000000,,2013-01-26 01:22:00,
2013-01-25 18:32:00,38.0,-99.9,-100.00,ENE,69,0.0,1.0,-999,0.00,,,-99.99,0.000000,,2013-01-26 01:32:00,
2013-01-25 18:42:00,37.0,-99.9,-100.00,SSW,212,0.0,2.0,-999,0.00,,,-99.99,0.000000,,2013-01-26 01:42:00,
2013-01-25 18:53:00,37.0,-99.9,-100.00,SSW,212,0.0,2.0,-999,0.00,,,-99.99,0.000000,,2013-01-26 01:53:00,
2013-01-25 19:02:00,37.0,-99.9,-100.00,South,171,2.0,3.0,-999,0.00,,,-99.99,0.000000,,2013-01-26 02:02:00,
2013-01-25 19:12:00,37.0,-99.9,-100.00,SSE,152,2.0,3.0,-999,0.00,,,-99.99,0.000000,,2013-01-26 02:12:00,
2013-01-25 19:22:00,37.0,-99.9,-100.00,South,174,0.0,2.0,-999,0.00,,,-99.99,0.000000,,2013-01-26 02:22:00,
2013-01-25 19:32:00,37.0,-99.9,-100.00,South,170,2.0,3.0,-999,0.00,,,-99.99,0.000000,,2013-01-26 02:32:00,
2013-01-25 19:42:00,37.0,-99.9,-100.00,SSE,155,3.0,4.0,-999,0.00,,,-99.99,0.000000,,2013-01-26 02:42:00,
2013-01-25 19:53:00,37.0,-99.9,-100.00,SSE,155,3.0,4.0,-999,0.00,,,-99.99,0.000000,,2013-01-26 02:53:00,
2013-01-25 20:02:00,38.0,-99.9,-100.00,ESE,117,1.0,3.0,-999,0.00,,,-99.99,0.000000,,2013-01-26 03:02:00,
2013-01-25 20:12:00,38.0,-99.9,-100.00,SSW,208,0.0,2.0,-999,0.00,,,-99.99,0.000000,,2013-01-26 03:12:00,
2013-01-25 20:22:00,37.0,-99.9,-100.00,WSW,248,0.0,1.0,-999,0.00,,,-99.99,0.000000,,2013-01-26 03:22:00,
2013-01-25 20:32:00,37.0,-99.9,-100.00,South,172,0.0,2.0,-999,0.00,,,-99.99,0.000000,,2013-01-26 03:32:00,
2013-01-25 20:43:00,36.0,-99.9,-100.00,East,86,0.0,2.0,-999,0.00,,,-99.99,0.000000,,2013-01-26 03:43:00,
2013-01-25 20:52:00,36.0,-99.9,-100.00,East,86,0.0,2.0,-999,0.00,,,-99.99,0.000000,,2013-01-26 03:52:00,
2013-01-25 21:02:00,36.0,-99.9,-100.00,SW,224,0.0,2.0,-999,0.00,,,-99.99,0.000000,,2013-01-26 04:02:00,
2013-01-25 21:12:00,35.0,-99.9,-100.00,South,189,2.0,3.0,-999,0.00,,,-99.99,0.000000,,2013-01-26 04:12:00,
2013-01-25 21:22:00,36.0,-99.9,-100.00,South,184,2.0,3.0,-999,0.00,,,-99.99,0.000000,,2013-01-26 04:22:00,
2013-01-25 21:32:00,37.0,-99.9,-100.00,SE,143,1.0,2.0,-999,0.00,,,-99.99,0.000000,,2013-01-26 04:32:00,
2013-01-25 21:43:00,36.0,-99.9,-100.00,SSE,162,0.0,1.0,-999,0.00,,,-99.99,0.000000,,2013-01-26 04:43:00,
2013-01-25 21:50:00,37.0,-99.9,-100.00,ESE,102,2.0,3.0,-999,0.00,,,-99.99,0.000000,,2013-01-26 04:50:00,
2013-01-25 21:52:00,36.0,-99.9,-100.00,SSE,162,0.0,1.0,-999,0.00,,,-99.99,0.000000,,2013-01-26 04:52:00,
2013-01-25 22:03:00,37.0,-99.9,-100.00,SSE,152,2.0,3.0,-999,0.00,,,-99.99,0.000000,,2013-01-26 05:03:00,
2013-01-25 22:12:00,37.0,-99.9,-100.00,ESE,102,2.0,3.0,-999,0.00,,,-99.99,0.000000,,2013-01-26 05:12:00,
2013-01-25 22:23:00,37.0,-99.9,-100.00,ESE,102,2.0,3.0,-999,0.00,,,-99.99,0.000000,,2013-01-26 05:23:00,
2013-01-25 22:33:00,37.0,-99.9,-100.00,ESE,102,2.0,3.0,-999,0.00,,,-99.99,0.000000,,2013-01-26 05:33:00,
2013-01-25 22:42:00,37.0,-99.9,-100.00,ESE,102,2.0,3.0,-999,0.00,,,-99.99,0.000000,,2013-01-26 05:42:00,
2013-01-25 23:22:00,33.0,-99.9,-100.00,NW,306,1.0,3.0,-999,0.00,,,-99.99,0.000000,,2013-01-26 06:22:00,
2013-01-25 23:32:00,33.0,-99.9,-100.00,NW,308,1.0,2.0,-999,0.00,,,-99.99,0.000000,,2013-01-26 06:32:00,
2013-01-25 23:42:00,33.0,-99.9,-100.00,ESE,113,1.0,3.0,-999,0.00,,,-99.99,0.000000,,2013-01-26 06:42:00,
2013-01-25 23:52:00,33.0,-99.9,-100.00,ESE,113,1.0,3.0,-999,0.00,,,-99.99,0.000000,,2013-01-26 06:52:00,